createdAt,value
2023-02-19T00:00:01.578Z,81.78
2023-02-19T00:02:30.322Z,80.72
2023-02-19T00:04:58.495Z,84.90
2023-02-19T00:07:26.870Z,85.47
2023-02-19T00:09:54.940Z,80.40
2023-02-19T00:12:23.279Z,81.55
2023-02-19T00:14:51.214Z,83.72
2023-02-19T00:17:19.614Z,81.28
2023-02-19T00:19:47.588Z,80.78
2023-02-19T00:22:16.184Z,82.18
2023-02-19T00:24:44.280Z,80.60
2023-02-19T00:27:12.558Z,78.95
2023-02-19T00:29:40.570Z,81.40
2023-02-19T00:32:08.900Z,81.70
2023-02-19T00:34:36.942Z,83.28
2023-02-19T00:37:05.294Z,79.03
2023-02-19T00:39:33.394Z,82.15
2023-02-19T00:42:01.760Z,78.07
2023-02-19T00:44:29.741Z,80.32
2023-02-19T00:46:58.065Z,80.40
2023-02-19T00:49:26.006Z,81.43
2023-02-19T00:51:54.321Z,81.88
2023-02-19T00:54:25.444Z,80.78
2023-02-19T00:56:53.662Z,81.22
2023-02-19T00:59:21.689Z,78.65
2023-02-19T01:01:50.078Z,82.05
2023-02-19T01:04:18.773Z,83.63
2023-02-19T01:06:49.119Z,84.43
2023-02-19T01:09:17.009Z,79.38
2023-02-19T01:11:45.259Z,83.47
2023-02-19T01:14:13.475Z,79.50
2023-02-19T01:16:41.671Z,79.47
2023-02-19T01:19:09.769Z,79.95
2023-02-19T01:21:38.038Z,80.18
2023-02-19T01:24:06.256Z,80.90
2023-02-19T01:26:34.477Z,80.78
2023-02-19T01:29:05.054Z,81.57
2023-02-19T01:31:33.670Z,82.70
2023-02-19T01:34:04.724Z,80.68
2023-02-19T01:36:34.510Z,82.65
2023-02-19T01:39:05.264Z,83.05
2023-02-19T01:41:38.316Z,82.50
2023-02-19T01:44:27.861Z,82.82
2023-02-19T01:46:59.131Z,81.47
2023-02-19T01:49:48.958Z,80.40
2023-02-19T01:52:27.762Z,83.25
2023-02-19T01:54:57.182Z,83.20
2023-02-19T01:57:34.300Z,81.40
2023-02-19T02:00:20.470Z,85.13
2023-02-19T02:02:52.752Z,83.85
2023-02-19T02:05:43.280Z,81.38
2023-02-19T02:08:32.214Z,80.43
2023-02-19T02:11:00.410Z,86.10
2023-02-19T02:13:29.150Z,83.57
2023-02-19T02:16:25.893Z,82.35
2023-02-19T02:19:16.475Z,84.43
2023-02-19T02:22:07.848Z,82.13
2023-02-19T02:25:15.803Z,77.15
2023-02-19T02:27:52.558Z,79.50
2023-02-19T02:30:55.835Z,83.78
2023-02-19T02:33:47.884Z,78.18
2023-02-19T02:36:24.892Z,82.28
2023-02-19T02:38:54.401Z,83.57
2023-02-19T02:41:25.436Z,80.28
2023-02-19T02:43:53.322Z,83.70
2023-02-19T02:46:35.545Z,80.30
2023-02-19T02:49:14.772Z,82.03
2023-02-19T02:51:48.073Z,79.55
2023-02-19T02:54:42.882Z,83.45
2023-02-19T02:57:16.732Z,85.25
2023-02-19T02:59:49.408Z,81.60
2023-02-19T03:02:28.309Z,83.75
2023-02-19T03:05:28.464Z,79.03
2023-02-19T03:07:59.631Z,80.30
2023-02-19T03:10:40.300Z,83.15
2023-02-19T03:13:32.772Z,83.85
2023-02-19T03:16:31.747Z,81.15
2023-02-19T03:19:19.195Z,83.60
2023-02-19T03:21:55.790Z,81.43
2023-02-19T03:24:49.040Z,81.03
2023-02-19T03:27:20.797Z,79.20
2023-02-19T03:29:57.603Z,80.15
2023-02-19T03:32:36.260Z,81.63
2023-02-19T03:35:31.460Z,80.47
2023-02-19T03:38:37.032Z,80.97
2023-02-19T03:41:20.733Z,83.47
2023-02-19T03:44:11.498Z,83.85
2023-02-19T03:47:04.105Z,83.70
2023-02-19T03:49:34.864Z,82.47
2023-02-19T03:52:23.955Z,86.13
2023-02-19T03:55:03.178Z,83.57
2023-02-19T03:57:38.970Z,84.55
2023-02-19T04:02:46.465Z,79.50
2023-02-19T04:05:27.083Z,81.00
2023-02-19T04:08:00.713Z,84.90
2023-02-19T04:10:34.793Z,85.05
2023-02-19T04:13:10.940Z,83.45
2023-02-19T04:15:43.357Z,83.72
2023-02-19T04:18:19.995Z,83.28
2023-02-19T04:20:48.937Z,83.57
2023-02-19T04:23:24.205Z,82.88
2023-02-19T04:25:59.909Z,86.97
2023-02-19T04:28:29.268Z,84.82
2023-02-19T04:30:57.192Z,83.82
2023-02-19T04:33:25.501Z,82.88
2023-02-19T04:35:53.512Z,88.80
2023-02-19T04:38:21.758Z,86.25
2023-02-19T04:40:51.946Z,85.50
2023-02-19T04:43:21.113Z,87.20
2023-02-19T04:45:49.148Z,86.95
2023-02-19T04:48:17.454Z,83.78
2023-02-19T04:50:45.373Z,87.93
2023-02-19T04:53:13.523Z,90.38
2023-02-19T04:55:41.560Z,89.00
2023-02-19T04:58:09.860Z,88.28
2023-02-19T05:00:38.048Z,87.35
2023-02-19T05:03:06.520Z,91.45
2023-02-19T05:05:35.458Z,91.63
2023-02-19T05:08:03.871Z,92.55
2023-02-19T05:10:31.900Z,86.80
2023-02-19T05:13:00.219Z,94.10
2023-02-19T05:15:28.243Z,101.10
2023-02-19T05:17:56.621Z,94.85
2023-02-19T05:20:24.558Z,92.95
2023-02-19T05:22:52.991Z,93.65
2023-02-19T05:25:21.151Z,98.50
2023-02-19T05:27:49.768Z,95.60
2023-02-19T05:30:17.873Z,97.18
2023-02-19T05:32:46.247Z,97.85
2023-02-19T05:35:14.148Z,94.25
2023-02-19T05:37:42.397Z,91.22
2023-02-19T05:40:10.698Z,95.07
2023-02-19T05:42:39.353Z,95.38
2023-02-19T05:45:07.867Z,89.22
2023-02-19T05:47:36.186Z,94.20
2023-02-19T05:50:04.431Z,90.38
2023-02-19T05:52:33.399Z,99.20
2023-02-19T05:55:01.302Z,99.03
2023-02-19T05:57:29.510Z,103.13
2023-02-19T05:59:57.412Z,101.70
2023-02-19T06:02:25.766Z,104.20
2023-02-19T06:04:54.172Z,94.70
2023-02-19T06:07:23.953Z,106.82
2023-02-19T06:09:52.049Z,98.32
2023-02-19T06:12:20.330Z,93.40
2023-02-19T06:14:48.579Z,93.07
2023-02-19T06:17:17.402Z,89.05
2023-02-19T06:19:45.403Z,86.13
2023-02-19T06:22:15.606Z,89.00
2023-02-19T06:24:43.790Z,89.13
2023-02-19T06:27:12.141Z,86.70
2023-02-19T06:29:41.491Z,86.45
2023-02-19T06:32:09.940Z,81.10
2023-02-19T06:34:38.201Z,79.43
2023-02-19T06:37:06.628Z,82.18
2023-02-19T06:39:34.958Z,80.38
2023-02-19T06:42:03.656Z,79.63
2023-02-19T06:44:32.104Z,79.28
2023-02-19T06:47:00.405Z,76.10
2023-02-19T06:49:28.485Z,77.53
2023-02-19T06:51:57.002Z,78.88
2023-02-19T06:54:26.527Z,77.40
2023-02-19T06:56:57.300Z,80.68
2023-02-19T06:59:26.027Z,80.88
2023-02-19T07:01:54.575Z,78.85
2023-02-19T07:04:22.573Z,84.40
2023-02-19T07:06:51.374Z,84.68
2023-02-19T07:09:19.300Z,84.70
2023-02-19T07:11:47.731Z,87.53
2023-02-19T07:14:16.936Z,80.88
2023-02-19T07:16:47.682Z,79.95
2023-02-19T07:19:16.093Z,83.07
2023-02-19T07:21:44.418Z,80.97
2023-02-19T07:24:12.460Z,78.00
2023-02-19T07:26:40.734Z,74.25
2023-02-19T07:29:10.491Z,77.50
2023-02-19T07:31:38.888Z,76.55
2023-02-19T07:34:08.065Z,77.47
2023-02-19T07:36:36.312Z,79.95
2023-02-19T07:39:04.712Z,81.68
2023-02-19T07:41:33.125Z,87.60
2023-02-19T07:44:01.062Z,84.93
2023-02-19T07:46:30.379Z,84.15
2023-02-19T07:49:00.273Z,84.65
2023-02-19T07:51:28.782Z,85.05
2023-02-19T07:53:56.934Z,88.38
2023-02-19T07:56:25.354Z,89.63
2023-02-19T07:58:53.455Z,86.05
2023-02-19T08:01:44.555Z,78.32
2023-02-19T08:04:14.855Z,72.70
2023-02-19T08:06:43.623Z,75.88
2023-02-19T08:09:12.074Z,69.63
2023-02-19T08:11:58.784Z,70.70
2023-02-19T08:14:27.877Z,69.47
2023-02-19T08:16:57.046Z,107.50
2023-02-19T08:19:25.508Z,73.70
2023-02-19T08:21:54.117Z,74.25
2023-02-19T08:24:22.270Z,68.03
2023-02-19T08:26:50.896Z,67.38
2023-02-19T08:29:18.939Z,68.20
2023-02-19T08:31:47.434Z,66.35
2023-02-19T08:34:15.717Z,68.32
2023-02-19T08:36:44.531Z,77.38
2023-02-19T08:39:12.680Z,71.82
2023-02-19T08:41:41.173Z,81.68
2023-02-19T08:44:09.358Z,78.32
2023-02-19T08:46:38.153Z,74.20
2023-02-19T08:49:06.093Z,91.20
2023-02-19T08:51:34.436Z,80.90
2023-02-19T08:54:04.511Z,84.07
2023-02-19T08:56:32.845Z,78.20
2023-02-19T08:59:00.820Z,75.55
2023-02-19T09:01:29.358Z,77.50
2023-02-19T09:03:57.581Z,115.32
2023-02-19T09:06:26.003Z,77.88
2023-02-19T09:08:54.013Z,92.07
2023-02-19T09:11:22.352Z,78.78
2023-02-19T09:13:50.282Z,72.80
2023-02-19T09:16:18.585Z,80.45
2023-02-19T09:18:46.522Z,76.55
2023-02-19T09:21:14.838Z,83.78
2023-02-19T09:23:42.809Z,78.82
2023-02-19T09:26:11.659Z,83.63
2023-02-19T09:28:41.989Z,80.05
2023-02-19T09:31:15.988Z,85.80
2023-02-19T09:33:45.643Z,82.80
2023-02-19T09:36:15.695Z,84.80
2023-02-19T09:38:43.770Z,83.07
2023-02-19T09:41:31.078Z,72.38
2023-02-19T09:44:00.899Z,76.47
2023-02-19T09:46:37.570Z,86.13
2023-02-19T09:49:11.401Z,78.93
2023-02-19T09:51:44.392Z,74.30
2023-02-19T09:54:23.120Z,76.72
2023-02-19T09:56:54.549Z,83.65
2023-02-19T09:59:27.512Z,78.63
2023-02-19T10:02:14.642Z,82.72
2023-02-19T10:04:44.973Z,82.20
2023-02-19T10:07:20.278Z,81.47
2023-02-19T10:09:54.740Z,82.65
2023-02-19T10:12:31.450Z,81.22
2023-02-19T10:15:12.533Z,77.50
2023-02-19T10:17:40.795Z,84.80
2023-02-19T10:20:16.455Z,87.85
2023-02-19T10:22:45.033Z,80.53
2023-02-19T10:25:17.218Z,77.10
2023-02-19T10:27:45.608Z,80.00
2023-02-19T10:30:23.465Z,84.88
2023-02-19T10:33:24.740Z,81.38
2023-02-19T10:36:02.668Z,81.28
2023-02-19T10:38:33.261Z,81.32
2023-02-19T10:41:14.299Z,80.40
2023-02-19T10:43:51.230Z,85.10
2023-02-19T10:46:23.463Z,85.82
2023-02-19T10:49:01.411Z,80.80
2023-02-19T10:51:38.644Z,84.07
2023-02-19T10:54:27.015Z,80.65
2023-02-19T10:56:55.007Z,84.55
2023-02-19T10:59:29.027Z,81.13
2023-02-19T11:02:02.692Z,79.80
2023-02-19T11:04:35.472Z,80.65
2023-02-19T11:07:17.267Z,83.03
2023-02-19T11:09:49.854Z,84.57
2023-02-19T11:12:27.287Z,97.88
2023-02-19T11:14:56.159Z,86.05
2023-02-19T11:17:29.537Z,82.53
2023-02-19T11:22:37.710Z,80.97
2023-02-19T11:25:19.824Z,82.88
2023-02-19T11:28:07.514Z,82.07
2023-02-19T11:30:44.260Z,89.93
2023-02-19T11:33:27.615Z,85.68
2023-02-19T11:36:21.545Z,79.55
2023-02-19T11:38:49.647Z,83.57
2023-02-19T11:41:45.756Z,85.47
2023-02-19T11:45:07.404Z,84.35
2023-02-19T11:48:00.020Z,85.88
2023-02-19T11:50:57.780Z,85.22
2023-02-19T11:53:32.412Z,87.35
2023-02-19T11:56:23.960Z,87.63
2023-02-19T11:59:13.188Z,89.28
2023-02-19T12:02:18.401Z,86.47
2023-02-19T12:05:08.552Z,88.18
2023-02-19T12:08:13.733Z,84.28
2023-02-19T12:11:12.650Z,86.40
2023-02-19T12:13:55.395Z,84.80
2023-02-19T12:16:36.633Z,83.10
2023-02-19T12:19:16.644Z,79.47
2023-02-19T12:22:06.661Z,85.10
2023-02-19T12:25:11.308Z,80.93
2023-02-19T12:28:15.765Z,81.40
2023-02-19T12:30:58.640Z,80.55
2023-02-19T12:33:38.839Z,79.13
2023-02-19T12:36:25.317Z,80.05
2023-02-19T12:39:05.727Z,76.53
2023-02-19T12:42:15.057Z,75.13
2023-02-19T12:44:54.455Z,76.28
2023-02-19T12:47:28.369Z,73.45
2023-02-19T12:50:17.177Z,77.13
2023-02-19T12:52:50.671Z,75.38
2023-02-19T12:55:26.645Z,75.97
2023-02-19T12:57:57.132Z,75.20
2023-02-19T13:00:31.640Z,69.38
2023-02-19T13:03:11.814Z,70.68
2023-02-19T13:05:58.921Z,73.03
2023-02-19T13:08:34.098Z,68.65
2023-02-19T13:11:25.265Z,67.65
2023-02-19T13:14:00.324Z,66.28
2023-02-19T13:16:33.665Z,62.95
2023-02-19T13:19:04.469Z,67.35
2023-02-19T13:21:55.272Z,65.43
2023-02-19T13:24:39.947Z,64.53
2023-02-19T13:27:42.125Z,63.15
2023-02-19T13:30:12.811Z,62.35
2023-02-19T13:33:07.781Z,65.18
2023-02-19T13:36:01.725Z,66.63
2023-02-19T13:38:30.412Z,62.22
2023-02-19T13:41:00.468Z,69.43
2023-02-19T13:43:37.514Z,64.65
2023-02-19T13:46:11.486Z,63.85
2023-02-19T13:48:43.812Z,64.20
2023-02-19T13:51:24.025Z,65.15
2023-02-19T13:54:00.421Z,61.78
2023-02-19T13:56:36.095Z,65.85
2023-02-19T13:59:23.662Z,63.30
2023-02-19T14:01:52.043Z,62.90
2023-02-19T14:04:32.475Z,62.13
2023-02-19T14:07:03.995Z,60.85
2023-02-19T14:09:40.071Z,61.28
2023-02-19T14:12:07.889Z,57.60
2023-02-19T14:14:38.258Z,60.17
2023-02-19T14:17:10.257Z,61.40
2023-02-19T14:19:59.912Z,59.00
2023-02-19T14:22:58.072Z,59.45
2023-02-19T14:25:30.516Z,61.08
2023-02-19T14:28:06.089Z,61.35
2023-02-19T14:30:47.143Z,58.67
2023-02-19T14:33:17.922Z,61.25
2023-02-19T14:35:49.600Z,59.67
2023-02-19T14:38:22.343Z,59.35
2023-02-19T14:40:53.277Z,60.78
2023-02-19T14:43:24.426Z,60.33
2023-02-19T14:45:55.026Z,61.53
2023-02-19T14:48:31.428Z,59.20
2023-02-19T14:51:12.266Z,61.75
2023-02-19T14:53:44.575Z,61.65
2023-02-19T14:56:23.469Z,61.85
2023-02-19T14:59:09.248Z,62.83
2023-02-19T15:01:38.405Z,64.40
2023-02-19T15:04:07.077Z,63.95
2023-02-19T15:06:36.218Z,63.47
2023-02-19T15:09:07.327Z,61.92
2023-02-19T15:11:36.218Z,63.20
2023-02-19T15:14:07.874Z,66.72
2023-02-19T15:16:36.797Z,61.95
2023-02-19T15:19:09.869Z,64.03
2023-02-19T15:21:44.948Z,62.95
2023-02-19T15:24:16.298Z,63.78
2023-02-19T15:26:54.498Z,63.03
2023-02-19T15:29:28.871Z,63.92
2023-02-19T15:32:00.508Z,66.72
2023-02-19T15:34:33.164Z,65.80
2023-02-19T15:37:07.368Z,64.47
2023-02-19T15:39:45.373Z,62.70
2023-02-19T15:42:21.214Z,64.25
2023-02-19T15:45:16.147Z,67.13
2023-02-19T15:48:04.654Z,64.90
2023-02-19T15:50:36.324Z,67.68
2023-02-19T15:53:22.122Z,64.60
2023-02-19T15:56:01.915Z,65.10
2023-02-19T15:58:33.203Z,64.53
2023-02-19T16:01:05.442Z,65.28
2023-02-19T16:03:35.264Z,66.22
2023-02-19T16:06:05.176Z,65.82
2023-02-19T16:08:38.781Z,63.22
2023-02-19T16:11:28.406Z,66.57
2023-02-19T16:14:29.032Z,65.05
2023-02-19T16:17:20.953Z,64.68
2023-02-19T16:20:03.597Z,65.15
2023-02-19T16:22:41.205Z,69.50
2023-02-19T16:25:24.858Z,65.82
2023-02-19T16:27:52.972Z,66.57
2023-02-19T16:30:29.370Z,69.00
2023-02-19T16:33:37.212Z,69.55
2023-02-19T16:36:26.543Z,77.00
2023-02-19T16:39:13.341Z,80.07
2023-02-19T16:41:41.474Z,77.93
2023-02-19T16:44:39.102Z,77.85
2023-02-19T16:47:16.783Z,80.35
2023-02-19T16:49:45.002Z,81.55
2023-02-19T16:52:16.046Z,80.88
2023-02-19T16:54:43.969Z,78.20
2023-02-19T16:57:12.481Z,81.28
2023-02-19T16:59:40.532Z,80.38
2023-02-19T17:02:15.596Z,77.25
2023-02-19T17:04:43.983Z,78.28
2023-02-19T17:07:17.337Z,80.20
2023-02-19T17:09:45.766Z,83.00
2023-02-19T17:12:16.177Z,77.72
2023-02-19T17:14:44.203Z,78.88
2023-02-19T17:17:12.467Z,81.13
2023-02-19T17:19:40.487Z,75.18
2023-02-19T17:22:09.017Z,82.88
2023-02-19T17:24:36.932Z,81.18
2023-02-19T17:27:06.310Z,79.32
2023-02-19T17:29:35.392Z,78.38
2023-02-19T17:32:04.029Z,76.22
2023-02-19T17:34:32.104Z,76.85
2023-02-19T17:37:00.510Z,81.80
2023-02-19T17:39:28.588Z,81.10
2023-02-19T17:41:57.240Z,81.35
2023-02-19T17:44:25.250Z,80.13
2023-02-19T17:46:53.618Z,75.82
2023-02-19T17:49:21.610Z,78.20
2023-02-19T17:51:49.888Z,74.85
2023-02-19T17:54:17.814Z,82.03
2023-02-19T17:56:46.304Z,76.22
2023-02-19T17:59:14.295Z,76.88
2023-02-19T18:01:42.782Z,79.15
2023-02-19T18:04:10.902Z,78.15
2023-02-19T18:06:39.325Z,75.53
2023-02-19T18:09:07.311Z,74.07
2023-02-19T18:11:37.302Z,73.60
2023-02-19T18:14:05.453Z,72.60
2023-02-19T18:16:33.791Z,75.30
2023-02-19T18:19:02.530Z,75.75
2023-02-19T18:21:31.347Z,69.63
2023-02-19T18:23:59.229Z,73.78
2023-02-19T18:26:27.532Z,76.72
2023-02-19T18:28:55.543Z,72.22
2023-02-19T18:31:23.934Z,73.22
2023-02-19T18:33:51.900Z,75.97
2023-02-19T18:36:20.173Z,75.25
2023-02-19T18:38:48.137Z,73.72
2023-02-19T18:41:20.196Z,76.13
2023-02-19T18:43:49.198Z,69.95
2023-02-19T18:46:21.736Z,73.75
2023-02-19T18:48:49.676Z,76.30
2023-02-19T18:51:17.973Z,69.43
2023-02-19T18:53:45.853Z,72.22
2023-02-19T18:56:14.153Z,71.95
2023-02-19T18:58:42.162Z,71.78
2023-02-19T19:01:14.200Z,71.63
2023-02-19T19:03:42.332Z,71.50
2023-02-19T19:06:10.604Z,73.05
2023-02-19T19:08:38.602Z,73.80
2023-02-19T19:11:06.870Z,72.50
2023-02-19T19:13:34.765Z,74.50
2023-02-19T19:16:03.196Z,73.72
2023-02-19T19:18:31.626Z,72.70
2023-02-19T19:21:03.603Z,76.38
2023-02-19T19:23:32.026Z,76.68
2023-02-19T19:26:00.402Z,77.95
2023-02-19T19:28:31.305Z,74.65
2023-02-19T19:31:00.359Z,76.25
2023-02-19T19:33:28.426Z,77.32
2023-02-19T19:35:56.833Z,81.57
2023-02-19T19:38:24.897Z,82.28
2023-02-19T19:40:53.241Z,79.22
2023-02-19T19:43:21.216Z,81.97
2023-02-19T19:45:50.681Z,79.28
2023-02-19T19:48:18.775Z,81.43
2023-02-19T19:50:47.313Z,78.43
2023-02-19T19:53:15.384Z,76.07
2023-02-19T19:55:44.056Z,77.75
2023-02-19T19:58:12.294Z,76.93
2023-02-19T20:00:40.649Z,76.82
2023-02-19T20:03:10.059Z,78.30
2023-02-19T20:05:38.424Z,78.75
2023-02-19T20:08:06.503Z,76.55
2023-02-19T20:10:35.203Z,74.45
2023-02-19T20:13:04.608Z,77.72
2023-02-19T20:15:33.023Z,75.20
2023-02-19T20:18:01.828Z,80.00
2023-02-19T20:20:30.792Z,74.10
2023-02-19T20:22:58.831Z,77.80
2023-02-19T20:25:27.667Z,76.57
2023-02-19T20:27:55.934Z,76.15
2023-02-19T20:30:24.933Z,75.50
2023-02-19T20:32:53.807Z,74.90
2023-02-19T20:35:22.217Z,79.82
2023-02-19T20:37:50.197Z,76.38
2023-02-19T20:40:18.837Z,76.97
2023-02-19T20:42:46.808Z,77.30
2023-02-19T20:45:16.907Z,78.80
2023-02-19T20:47:44.891Z,80.07
2023-02-19T20:50:13.291Z,78.03
2023-02-19T20:52:41.738Z,80.90
2023-02-19T20:55:10.364Z,80.20
2023-02-19T20:57:38.456Z,79.50
2023-02-19T21:00:09.015Z,76.72
2023-02-19T21:02:37.182Z,79.45
2023-02-19T21:05:05.992Z,78.95
2023-02-19T21:07:33.984Z,79.43
2023-02-19T21:10:02.458Z,78.63
2023-02-19T21:12:30.528Z,79.93
2023-02-19T21:14:58.873Z,81.55
2023-02-19T21:17:26.838Z,81.90
2023-02-19T21:19:55.096Z,80.20
2023-02-19T21:22:23.123Z,83.28
2023-02-19T21:24:53.277Z,81.22
2023-02-19T21:27:21.446Z,82.15
2023-02-19T21:29:49.896Z,84.53
2023-02-19T21:32:18.056Z,83.18
2023-02-19T21:34:46.428Z,86.20
2023-02-19T21:37:14.349Z,80.72
2023-02-19T21:39:43.028Z,83.57
2023-02-19T21:42:11.045Z,82.28
2023-02-19T21:44:39.693Z,81.28
2023-02-19T21:47:08.501Z,83.10
2023-02-19T21:49:36.734Z,84.63
2023-02-19T21:52:04.759Z,87.45
2023-02-19T21:54:33.046Z,83.35
2023-02-19T21:57:04.007Z,85.28
2023-02-19T21:59:32.561Z,85.00
2023-02-19T22:02:00.592Z,82.90
2023-02-19T22:04:29.063Z,79.85
2023-02-19T22:06:57.363Z,84.03
2023-02-19T22:09:25.772Z,82.38
2023-02-19T22:11:53.694Z,85.15
2023-02-19T22:14:22.024Z,84.80
2023-02-19T22:16:50.049Z,82.40
2023-02-19T22:19:18.312Z,85.45
2023-02-19T22:21:46.588Z,84.88
2023-02-19T22:24:18.157Z,85.40
2023-02-19T22:26:46.606Z,85.13
2023-02-19T22:29:15.826Z,86.40
2023-02-19T22:31:44.774Z,87.65
2023-02-19T22:34:13.470Z,84.45
2023-02-19T22:36:42.272Z,83.65
2023-02-19T22:39:23.510Z,86.50
2023-02-19T22:41:52.646Z,84.25
2023-02-19T22:44:21.023Z,82.03
2023-02-19T22:46:54.849Z,84.07
2023-02-19T22:49:24.336Z,85.90
2023-02-19T22:51:58.389Z,82.85
2023-02-19T22:54:27.253Z,83.90
2023-02-19T22:56:55.856Z,84.68
2023-02-19T22:59:24.312Z,83.07
2023-02-19T23:01:52.909Z,83.25
2023-02-19T23:04:22.494Z,81.47
2023-02-19T23:06:50.982Z,87.30
2023-02-19T23:09:23.681Z,81.82
2023-02-19T23:11:52.558Z,86.13
2023-02-19T23:14:22.464Z,82.90
2023-02-19T23:16:50.386Z,85.10
2023-02-19T23:19:18.804Z,88.55
2023-02-19T23:21:47.037Z,88.50
2023-02-19T23:24:16.145Z,83.55
2023-02-19T23:26:49.878Z,89.38
2023-02-19T23:29:25.343Z,85.72
2023-02-19T23:31:54.772Z,88.78
2023-02-19T23:34:24.772Z,89.72
2023-02-19T23:36:52.775Z,85.38
2023-02-19T23:39:22.244Z,83.28
2023-02-19T23:41:53.262Z,87.28
2023-02-19T23:44:22.857Z,94.63
2023-02-19T23:46:52.206Z,90.90
2023-02-19T23:49:20.783Z,88.78
2023-02-19T23:51:48.777Z,95.13
2023-02-19T23:54:17.048Z,91.15
2023-02-19T23:56:45.156Z,91.10
2023-02-19T23:59:13.788Z,86.85
